sensor_id;sensor_type;location;lat;lon;timestamp;pressure;altitude;pressure_sealevel;temperature;humidity
19783;BME280;10051;40.294;-3.754;2023-11-19T00:00:06;95041.56;;;13.68;100.00
19783;BME280;10051;40.294;-3.754;2023-11-19T00:02:38;94974.25;;;13.20;100.00
19783;BME280;10051;40.294;-3.754;2023-11-19T00:05:04;94921.34;;;12.96;100.00
19783;BME280;10051;40.294;-3.754;2023-11-19T00:07:35;95001.25;;;13.52;100.00
19783;BME280;10051;40.294;-3.754;2023-11-19T00:10:02;95000.69;;;13.55;100.00
19783;BME280;10051;40.294;-3.754;2023-11-19T00:12:32;95027.22;;;13.74;100.00
19783;BME280;10051;40.294;-3.754;2023-11-19T00:14:58;94897.69;;;12.81;100.00
19783;BME280;10051;40.294;-3.754;2023-11-19T00:17:23;95024.69;;;13.64;100.00
19783;BME280;10051;40.294;-3.754;2023-11-19T00:19:49;94974.41;;;13.34;100.00
19783;BME280;10051;40.294;-3.754;2023-11-19T00:22:17;94951.84;;;13.13;100.00
19783;BME280;10051;40.294;-3.754;2023-11-19T00:24:42;94963.44;;;13.17;100.00
19783;BME280;10051;40.294;-3.754;2023-11-19T00:27:08;95018.94;;;13.57;100.00
19783;BME280;10051;40.294;-3.754;2023-11-19T00:29:33;95018.13;;;13.56;100.00
19783;BME280;10051;40.294;-3.754;2023-11-19T00:31:59;95008.38;;;13.51;100.00
19783;BME280;10051;40.294;-3.754;2023-11-19T00:34:25;94948.47;;;13.07;100.00
19783;BME280;10051;40.294;-3.754;2023-11-19T00:36:51;95009.47;;;13.50;100.00
19783;BME280;10051;40.294;-3.754;2023-11-19T00:39:17;94921.91;;;12.88;100.00
19783;BME280;10051;40.294;-3.754;2023-11-19T00:41:43;95010.72;;;13.58;100.00
19783;BME280;10051;40.294;-3.754;2023-11-19T00:44:09;94936.09;;;13.02;100.00
19783;BME280;10051;40.294;-3.754;2023-11-19T00:46:34;95003.69;;;13.43;100.00
19783;BME280;10051;40.294;-3.754;2023-11-19T00:49:00;95003.44;;;13.39;100.00
19783;BME280;10051;40.294;-3.754;2023-11-19T00:51:29;94999.78;;;13.30;100.00
19783;BME280;10051;40.294;-3.754;2023-11-19T00:53:57;94996.16;;;13.21;100.00
19783;BME280;10051;40.294;-3.754;2023-11-19T00:56:24;94972.31;;;12.91;100.00
19783;BME280;10051;40.294;-3.754;2023-11-19T00:58:53;94939.94;;;12.75;100.00
19783;BME280;10051;40.294;-3.754;2023-11-19T01:01:19;94984.63;;;13.06;100.00
19783;BME280;10051;40.294;-3.754;2023-11-19T01:03:46;94987.72;;;13.19;100.00
19783;BME280;10051;40.294;-3.754;2023-11-19T01:06:11;94928.56;;;12.80;100.00
19783;BME280;10051;40.294;-3.754;2023-11-19T01:08:38;94979.25;;;13.22;100.00
19783;BME280;10051;40.294;-3.754;2023-11-19T01:11:04;94985.03;;;13.24;100.00
19783;BME280;10051;40.294;-3.754;2023-11-19T01:13:32;94958.47;;;13.10;100.00
19783;BME280;10051;40.294;-3.754;2023-11-19T01:16:01;94974.97;;;13.31;100.00
19783;BME280;10051;40.294;-3.754;2023-11-19T01:18:27;94868.28;;;12.58;100.00
19783;BME280;10051;40.294;-3.754;2023-11-19T01:20:53;94955.75;;;13.20;100.00
19783;BME280;10051;40.294;-3.754;2023-11-19T01:23:19;94924.19;;;13.05;100.00
19783;BME280;10051;40.294;-3.754;2023-11-19T01:25:44;94954.94;;;13.25;100.00
19783;BME280;10051;40.294;-3.754;2023-11-19T01:28:10;94971.75;;;13.39;100.00
19783;BME280;10051;40.294;-3.754;2023-11-19T01:30:36;94919.16;;;13.03;100.00
19783;BME280;10051;40.294;-3.754;2023-11-19T01:33:02;94905.03;;;12.89;100.00
19783;BME280;10051;40.294;-3.754;2023-11-19T01:35:27;94891.84;;;12.84;100.00
19783;BME280;10051;40.294;-3.754;2023-11-19T01:37:53;94922.13;;;12.97;100.00
19783;BME280;10051;40.294;-3.754;2023-11-19T01:40:22;94926.94;;;12.84;100.00
19783;BME280;10051;40.294;-3.754;2023-11-19T01:42:47;94914.66;;;12.64;100.00
19783;BME280;10051;40.294;-3.754;2023-11-19T01:45:22;94950.78;;;12.74;100.00
19783;BME280;10051;40.294;-3.754;2023-11-19T01:47:52;94931.34;;;12.54;100.00
19783;BME280;10051;40.294;-3.754;2023-11-19T01:50:18;94845.41;;;11.82;100.00
19783;BME280;10051;40.294;-3.754;2023-11-19T01:52:45;94931.44;;;12.33;100.00
19783;BME280;10051;40.294;-3.754;2023-11-19T01:55:12;94940.66;;;12.36;100.00
19783;BME280;10051;40.294;-3.754;2023-11-19T01:57:38;94953.81;;;12.41;100.00
19783;BME280;10051;40.294;-3.754;2023-11-19T02:00:07;94950.16;;;12.37;100.00
19783;BME280;10051;40.294;-3.754;2023-11-19T02:02:37;94918.63;;;12.11;100.00
19783;BME280;10051;40.294;-3.754;2023-11-19T02:05:02;94950.19;;;12.22;100.00
19783;BME280;10051;40.294;-3.754;2023-11-19T02:07:29;94940.75;;;12.10;100.00
19783;BME280;10051;40.294;-3.754;2023-11-19T02:09:57;94889.69;;;11.75;100.00
19783;BME280;10051;40.294;-3.754;2023-11-19T02:12:26;94888.63;;;11.71;100.00
19783;BME280;10051;40.294;-3.754;2023-11-19T02:14:54;94950.25;;;12.11;100.00
19783;BME280;10051;40.294;-3.754;2023-11-19T02:17:30;94952.84;;;12.16;100.00
19783;BME280;10051;40.294;-3.754;2023-11-19T02:20:00;94942.06;;;12.13;100.00
19783;BME280;10051;40.294;-3.754;2023-11-19T02:22:26;94939.41;;;12.18;100.00
19783;BME280;10051;40.294;-3.754;2023-11-19T02:24:57;94934.38;;;12.22;100.00
19783;BME280;10051;40.294;-3.754;2023-11-19T02:30:40;94910.72;;;12.11;100.00
19783;BME280;10051;40.294;-3.754;2023-11-19T02:33:09;94944.34;;;12.35;100.00
19783;BME280;10051;40.294;-3.754;2023-11-19T02:35:44;94928.03;;;12.28;100.00
19783;BME280;10051;40.294;-3.754;2023-11-19T02:38:13;94941.69;;;12.45;100.00
19783;BME280;10051;40.294;-3.754;2023-11-19T02:40:42;94907.75;;;12.23;100.00
19783;BME280;10051;40.294;-3.754;2023-11-19T02:43:08;94886.19;;;12.11;100.00
19783;BME280;10051;40.294;-3.754;2023-11-19T02:45:34;94932.00;;;12.30;100.00
19783;BME280;10051;40.294;-3.754;2023-11-19T02:48:00;94937.00;;;12.27;100.00
19783;BME280;10051;40.294;-3.754;2023-11-19T02:50:28;94916.22;;;12.10;100.00
19783;BME280;10051;40.294;-3.754;2023-11-19T02:52:55;94883.84;;;11.88;100.00
19783;BME280;10051;40.294;-3.754;2023-11-19T02:55:22;94902.28;;;11.94;100.00
19783;BME280;10051;40.294;-3.754;2023-11-19T02:57:50;94937.59;;;12.08;100.00
19783;BME280;10051;40.294;-3.754;2023-11-19T03:00:22;94944.47;;;12.04;100.00
19783;BME280;10051;40.294;-3.754;2023-11-19T03:03:12;94924.41;;;12.08;100.00
19783;BME280;10051;40.294;-3.754;2023-11-19T03:05:46;94866.56;;;11.56;100.00
19783;BME280;10051;40.294;-3.754;2023-11-19T03:08:12;94921.28;;;11.85;100.00
19783;BME280;10051;40.294;-3.754;2023-11-19T03:10:38;94935.00;;;11.77;100.00
19783;BME280;10051;40.294;-3.754;2023-11-19T03:13:04;94893.97;;;11.40;100.00
19783;BME280;10051;40.294;-3.754;2023-11-19T03:15:29;94929.50;;;11.53;100.00
19783;BME280;10051;40.294;-3.754;2023-11-19T03:17:55;94886.63;;;11.21;100.00
19783;BME280;10051;40.294;-3.754;2023-11-19T03:20:21;94796.38;;;10.53;100.00
19783;BME280;10051;40.294;-3.754;2023-11-19T03:22:48;94877.66;;;11.07;100.00
19783;BME280;10051;40.294;-3.754;2023-11-19T03:25:16;94919.25;;;11.41;100.00
19783;BME280;10051;40.294;-3.754;2023-11-19T03:27:41;94914.78;;;11.47;100.00
19783;BME280;10051;40.294;-3.754;2023-11-19T03:30:08;94862.66;;;11.12;100.00
19783;BME280;10051;40.294;-3.754;2023-11-19T03:32:38;94911.59;;;11.60;100.00
19783;BME280;10051;40.294;-3.754;2023-11-19T03:35:05;94913.97;;;11.62;100.00
19783;BME280;10051;40.294;-3.754;2023-11-19T03:37:33;94881.84;;;11.39;100.00
19783;BME280;10051;40.294;-3.754;2023-11-19T03:39:59;94893.72;;;11.47;100.00
19783;BME280;10051;40.294;-3.754;2023-11-19T03:42:26;94871.88;;;11.25;100.00
19783;BME280;10051;40.294;-3.754;2023-11-19T03:44:53;94896.34;;;11.41;100.00
19783;BME280;10051;40.294;-3.754;2023-11-19T03:47:22;94915.03;;;11.50;100.00
19783;BME280;10051;40.294;-3.754;2023-11-19T03:49:51;94920.81;;;11.47;100.00
19783;BME280;10051;40.294;-3.754;2023-11-19T03:52:18;94903.44;;;11.36;100.00
19783;BME280;10051;40.294;-3.754;2023-11-19T03:54:45;94916.59;;;11.41;100.00
19783;BME280;10051;40.294;-3.754;2023-11-19T03:57:13;94921.63;;;11.48;100.00
19783;BME280;10051;40.294;-3.754;2023-11-19T03:59:41;94857.13;;;11.09;100.00
19783;BME280;10051;40.294;-3.754;2023-11-19T04:02:07;94878.72;;;11.16;100.00
19783;BME280;10051;40.294;-3.754;2023-11-19T04:04:33;94885.56;;;11.17;100.00
19783;BME280;10051;40.294;-3.754;2023-11-19T04:07:05;94894.00;;;11.19;100.00
19783;BME280;10051;40.294;-3.754;2023-11-19T04:09:31;94852.91;;;10.87;100.00
19783;BME280;10051;40.294;-3.754;2023-11-19T04:12:01;94908.22;;;11.18;100.00
19783;BME280;10051;40.294;-3.754;2023-11-19T04:14:27;94897.38;;;11.04;100.00
19783;BME280;10051;40.294;-3.754;2023-11-19T04:16:53;94911.88;;;11.12;100.00
19783;BME280;10051;40.294;-3.754;2023-11-19T04:19:19;94905.03;;;11.06;100.00
19783;BME280;10051;40.294;-3.754;2023-11-19T04:21:45;94872.91;;;10.83;100.00
19783;BME280;10051;40.294;-3.754;2023-11-19T04:24:12;94902.66;;;11.04;100.00
19783;BME280;10051;40.294;-3.754;2023-11-19T04:26:44;94895.03;;;10.97;100.00
19783;BME280;10051;40.294;-3.754;2023-11-19T04:29:16;94901.88;;;11.04;100.00
19783;BME280;10051;40.294;-3.754;2023-11-19T04:31:45;94902.94;;;11.08;100.00
19783;BME280;10051;40.294;-3.754;2023-11-19T04:34:11;94847.69;;;10.77;100.00
19783;BME280;10051;40.294;-3.754;2023-11-19T04:36:37;94900.56;;;11.11;100.00
19783;BME280;10051;40.294;-3.754;2023-11-19T04:39:04;94891.63;;;11.02;100.00
19783;BME280;10051;40.294;-3.754;2023-11-19T04:41:51;94895.81;;;11.08;100.00
19783;BME280;10051;40.294;-3.754;2023-11-19T04:44:18;94859.75;;;10.83;100.00
19783;BME280;10051;40.294;-3.754;2023-11-19T04:46:44;94839.25;;;10.69;100.00
19783;BME280;10051;40.294;-3.754;2023-11-19T04:49:11;94834.00;;;10.69;100.00
19783;BME280;10051;40.294;-3.754;2023-11-19T04:51:45;94830.81;;;10.67;100.00
19783;BME280;10051;40.294;-3.754;2023-11-19T04:54:14;94899.50;;;11.12;100.00
19783;BME280;10051;40.294;-3.754;2023-11-19T04:56:40;94895.03;;;11.13;100.00
19783;BME280;10051;40.294;-3.754;2023-11-19T04:59:06;94901.88;;;11.14;100.00
19783;BME280;10051;40.294;-3.754;2023-11-19T05:01:32;94896.63;;;11.09;100.00
19783;BME280;10051;40.294;-3.754;2023-11-19T05:03:59;94840.81;;;10.60;100.00
19783;BME280;10051;40.294;-3.754;2023-11-19T05:06:31;94889.25;;;10.80;100.00
19783;BME280;10051;40.294;-3.754;2023-11-19T05:08:59;94895.50;;;10.58;100.00
19783;BME280;10051;40.294;-3.754;2023-11-19T05:11:33;94833.28;;;10.00;100.00
19783;BME280;10051;40.294;-3.754;2023-11-19T05:14:03;94823.75;;;9.78;100.00
19783;BME280;10051;40.294;-3.754;2023-11-19T05:16:29;94849.03;;;10.00;100.00
19783;BME280;10051;40.294;-3.754;2023-11-19T05:18:55;94864.88;;;10.16;100.00
19783;BME280;10051;40.294;-3.754;2023-11-19T05:21:24;94897.31;;;10.42;100.00
19783;BME280;10051;40.294;-3.754;2023-11-19T05:23:51;94796.97;;;9.76;100.00
19783;BME280;10051;40.294;-3.754;2023-11-19T05:26:23;94897.53;;;10.30;100.00
19783;BME280;10051;40.294;-3.754;2023-11-19T05:28:52;94885.91;;;10.21;100.00
19783;BME280;10051;40.294;-3.754;2023-11-19T05:31:18;94860.34;;;9.95;100.00
19783;BME280;10051;40.294;-3.754;2023-11-19T05:33:44;94802.69;;;9.63;100.00
19783;BME280;10051;40.294;-3.754;2023-11-19T05:36:11;94855.38;;;10.04;100.00
19783;BME280;10051;40.294;-3.754;2023-11-19T05:38:38;94815.41;;;9.92;100.00
19783;BME280;10051;40.294;-3.754;2023-11-19T05:41:04;94882.34;;;10.48;100.00
19783;BME280;10051;40.294;-3.754;2023-11-19T05:43:31;94837.81;;;10.20;100.00
19783;BME280;10051;40.294;-3.754;2023-11-19T05:45:57;94837.06;;;10.30;100.00
19783;BME280;10051;40.294;-3.754;2023-11-19T05:48:24;94843.91;;;10.36;100.00
19783;BME280;10051;40.294;-3.754;2023-11-19T05:50:50;94828.09;;;10.21;100.00
19783;BME280;10051;40.294;-3.754;2023-11-19T05:53:16;94909.72;;;10.67;100.00
19783;BME280;10051;40.294;-3.754;2023-11-19T05:55:41;94899.47;;;10.66;100.00
19783;BME280;10051;40.294;-3.754;2023-11-19T05:58:26;94898.19;;;10.74;100.00
19783;BME280;10051;40.294;-3.754;2023-11-19T06:00:52;94856.56;;;10.45;100.00
19783;BME280;10051;40.294;-3.754;2023-11-19T06:03:18;94844.97;;;10.35;100.00
19783;BME280;10051;40.294;-3.754;2023-11-19T06:05:47;94868.63;;;10.40;100.00
19783;BME280;10051;40.294;-3.754;2023-11-19T06:08:14;94895.50;;;10.58;100.00
19783;BME280;10051;40.294;-3.754;2023-11-19T06:10:40;94867.34;;;10.43;100.00
19783;BME280;10051;40.294;-3.754;2023-11-19T06:13:06;94845.69;;;10.25;100.00
19783;BME280;10051;40.294;-3.754;2023-11-19T06:15:33;94852.84;;;10.40;100.00
19783;BME280;10051;40.294;-3.754;2023-11-19T06:17:59;94885.53;;;10.65;100.00
19783;BME280;10051;40.294;-3.754;2023-11-19T06:20:26;94850.28;;;10.56;100.00
19783;BME280;10051;40.294;-3.754;2023-11-19T06:22:54;94870.28;;;10.67;100.00
19783;BME280;10051;40.294;-3.754;2023-11-19T06:25:23;94885.81;;;10.84;100.00
19783;BME280;10051;40.294;-3.754;2023-11-19T06:27:49;94865.03;;;10.67;100.00
19783;BME280;10051;40.294;-3.754;2023-11-19T06:30:15;94882.91;;;10.76;100.00
19783;BME280;10051;40.294;-3.754;2023-11-19T06:32:42;94893.44;;;10.70;100.00
19783;BME280;10051;40.294;-3.754;2023-11-19T06:35:08;94890.25;;;10.63;100.00
19783;BME280;10051;40.294;-3.754;2023-11-19T06:37:43;94893.16;;;10.72;100.00
19783;BME280;10051;40.294;-3.754;2023-11-19T06:40:09;94847.09;;;10.44;100.00
19783;BME280;10051;40.294;-3.754;2023-11-19T06:42:35;94852.34;;;10.44;100.00
19783;BME280;10051;40.294;-3.754;2023-11-19T06:45:02;94893.16;;;10.67;100.00
19783;BME280;10051;40.294;-3.754;2023-11-19T06:47:34;94828.91;;;10.37;100.00
19783;BME280;10051;40.294;-3.754;2023-11-19T06:50:00;94809.72;;;10.26;100.00
19783;BME280;10051;40.294;-3.754;2023-11-19T06:52:26;94897.91;;;10.85;100.00
19783;BME280;10051;40.294;-3.754;2023-11-19T06:54:57;94883.16;;;10.64;100.00
19783;BME280;10051;40.294;-3.754;2023-11-19T06:57:23;94901.56;;;10.59;100.00
19783;BME280;10051;40.294;-3.754;2023-11-19T06:59:49;94869.16;;;10.37;100.00
19783;BME280;10051;40.294;-3.754;2023-11-19T07:02:14;94910.22;;;10.49;100.00
19783;BME280;10051;40.294;-3.754;2023-11-19T07:04:40;94906.00;;;10.48;100.00
19783;BME280;10051;40.294;-3.754;2023-11-19T07:07:06;94908.09;;;10.51;100.00
19783;BME280;10051;40.294;-3.754;2023-11-19T07:09:32;94912.84;;;10.54;100.00
19783;BME280;10051;40.294;-3.754;2023-11-19T07:11:58;94885.94;;;10.26;100.00
19783;BME280;10051;40.294;-3.754;2023-11-19T07:14:25;94897.50;;;10.25;100.00
19783;BME280;10051;40.294;-3.754;2023-11-19T07:16:51;94870.63;;;10.07;100.00
19783;BME280;10051;40.294;-3.754;2023-11-19T07:19:17;94912.84;;;10.49;100.00
19783;BME280;10051;40.294;-3.754;2023-11-19T07:21:43;94900.19;;;10.40;100.00
19783;BME280;10051;40.294;-3.754;2023-11-19T07:24:15;94867.56;;;10.31;100.00
19783;BME280;10051;40.294;-3.754;2023-11-19T07:26:46;94855.69;;;10.29;100.00
19783;BME280;10051;40.294;-3.754;2023-11-19T07:29:13;94862.25;;;10.21;100.00
19783;BME280;10051;40.294;-3.754;2023-11-19T07:31:39;94911.53;;;10.51;100.00
19783;BME280;10051;40.294;-3.754;2023-11-19T07:34:05;94907.56;;;10.49;100.00
19783;BME280;10051;40.294;-3.754;2023-11-19T07:36:32;94845.63;;;10.00;100.00
19783;BME280;10051;40.294;-3.754;2023-11-19T07:38:58;94909.97;;;10.50;100.00
19783;BME280;10051;40.294;-3.754;2023-11-19T07:41:24;94877.53;;;10.29;100.00
19783;BME280;10051;40.294;-3.754;2023-11-19T07:43:50;94891.25;;;10.47;100.00
19783;BME280;10051;40.294;-3.754;2023-11-19T07:46:17;94873.91;;;10.40;100.00
19783;BME280;10051;40.294;-3.754;2023-11-19T07:48:45;94908.41;;;10.60;100.00
19783;BME280;10051;40.294;-3.754;2023-11-19T07:51:13;94864.13;;;10.31;100.00
19783;BME280;10051;40.294;-3.754;2023-11-19T07:53:39;94917.63;;;10.73;100.00
19783;BME280;10051;40.294;-3.754;2023-11-19T07:56:06;94915.03;;;10.78;100.00
19783;BME280;10051;40.294;-3.754;2023-11-19T07:58:33;94918.16;;;10.85;100.00
19783;BME280;10051;40.294;-3.754;2023-11-19T08:01:07;94845.53;;;10.48;100.00
19783;BME280;10051;40.294;-3.754;2023-11-19T08:03:33;94866.06;;;10.66;100.00
19783;BME280;10051;40.294;-3.754;2023-11-19T08:06:00;94892.38;;;10.87;100.00
19783;BME280;10051;40.294;-3.754;2023-11-19T08:08:27;94863.16;;;10.68;100.00
19783;BME280;10051;40.294;-3.754;2023-11-19T08:10:58;94923.47;;;11.16;100.00
19783;BME280;10051;40.294;-3.754;2023-11-19T08:13:32;94829.25;;;10.66;100.00
19783;BME280;10051;40.294;-3.754;2023-11-19T08:15:58;94868.72;;;10.92;100.00
19783;BME280;10051;40.294;-3.754;2023-11-19T08:18:24;94881.88;;;10.97;100.00
19783;BME280;10051;40.294;-3.754;2023-11-19T08:20:51;94905.03;;;11.16;100.00
19783;BME280;10051;40.294;-3.754;2023-11-19T08:23:19;94821.34;;;10.61;100.00
19783;BME280;10051;40.294;-3.754;2023-11-19T08:25:45;94940.84;;;11.48;100.00
19783;BME280;10051;40.294;-3.754;2023-11-19T08:28:10;94859.22;;;10.91;100.00
19783;BME280;10051;40.294;-3.754;2023-11-19T08:30:36;94950.84;;;11.46;100.00
19783;BME280;10051;40.294;-3.754;2023-11-19T08:33:02;94914.00;;;11.25;100.00
19783;BME280;10051;40.294;-3.754;2023-11-19T08:35:29;94942.16;;;11.40;100.00
19783;BME280;10051;40.294;-3.754;2023-11-19T08:37:55;94959.81;;;11.55;100.00
19783;BME280;10051;40.294;-3.754;2023-11-19T08:40:21;94949.50;;;11.59;100.00
19783;BME280;10051;40.294;-3.754;2023-11-19T08:42:46;94874.75;;;11.13;100.00
19783;BME280;10051;40.294;-3.754;2023-11-19T08:45:12;94965.56;;;11.78;100.00
19783;BME280;10051;40.294;-3.754;2023-11-19T08:47:38;94957.66;;;11.73;100.00
19783;BME280;10051;40.294;-3.754;2023-11-19T08:50:06;94942.94;;;11.51;100.00
19783;BME280;10051;40.294;-3.754;2023-11-19T08:52:31;94880.31;;;11.17;100.00
19783;BME280;10051;40.294;-3.754;2023-11-19T08:54:57;94962.16;;;11.78;100.00
19783;BME280;10051;40.294;-3.754;2023-11-19T08:57:23;94922.13;;;11.55;100.00
19783;BME280;10051;40.294;-3.754;2023-11-19T08:59:48;94973.16;;;12.11;100.00
19783;BME280;10051;40.294;-3.754;2023-11-19T09:02:14;94953.66;;;12.07;100.00
19783;BME280;10051;40.294;-3.754;2023-11-19T09:04:40;94951.25;;;12.15;100.00
19783;BME280;10051;40.294;-3.754;2023-11-19T09:07:06;94972.31;;;12.36;100.00
19783;BME280;10051;40.294;-3.754;2023-11-19T09:09:34;94963.84;;;12.44;100.00
19783;BME280;10051;40.294;-3.754;2023-11-19T09:12:03;94948.53;;;12.46;100.00
19783;BME280;10051;40.294;-3.754;2023-11-19T09:14:30;94965.03;;;12.73;100.00
19783;BME280;10051;40.294;-3.754;2023-11-19T09:16:56;94967.19;;;13.05;100.00
19783;BME280;10051;40.294;-3.754;2023-11-19T09:19:26;94960.09;;;13.06;99.32
19783;BME280;10051;40.294;-3.754;2023-11-19T09:21:53;94924.03;;;12.91;98.23
19783;BME280;10051;40.294;-3.754;2023-11-19T09:24:18;94917.41;;;12.88;97.13
19783;BME280;10051;40.294;-3.754;2023-11-19T09:26:44;94954.97;;;13.20;97.88
19783;BME280;10051;40.294;-3.754;2023-11-19T09:29:11;94945.78;;;13.12;97.67
19783;BME280;10051;40.294;-3.754;2023-11-19T09:31:40;94960.69;;;13.32;96.63
19783;BME280;10051;40.294;-3.754;2023-11-19T09:34:08;94960.91;;;13.41;95.77
19783;BME280;10051;40.294;-3.754;2023-11-19T09:36:34;94931.88;;;13.36;94.57
19783;BME280;10051;40.294;-3.754;2023-11-19T09:39:00;94959.06;;;13.71;92.93
19783;BME280;10051;40.294;-3.754;2023-11-19T09:41:31;94913.00;;;13.53;91.14
19783;BME280;10051;40.294;-3.754;2023-11-19T09:43:58;94960.63;;;14.02;89.91
19783;BME280;10051;40.294;-3.754;2023-11-19T09:46:29;94955.34;;;14.02;90.27
19783;BME280;10051;40.294;-3.754;2023-11-19T09:48:56;94926.56;;;13.71;89.92
19783;BME280;10051;40.294;-3.754;2023-11-19T09:51:25;94957.44;;;14.05;90.01
19783;BME280;10051;40.294;-3.754;2023-11-19T09:53:53;94966.53;;;14.18;89.44
19783;BME280;10051;40.294;-3.754;2023-11-19T09:56:19;94961.66;;;14.30;87.45
19783;BME280;10051;40.294;-3.754;2023-11-19T09:58:47;94950.72;;;14.37;87.28
19783;BME280;10051;40.294;-3.754;2023-11-19T10:01:14;94916.97;;;14.28;87.48
19783;BME280;10051;40.294;-3.754;2023-11-19T10:03:40;94908.38;;;14.37;85.56
19783;BME280;10051;40.294;-3.754;2023-11-19T10:06:09;94955.91;;;14.66;85.76
19783;BME280;10051;40.294;-3.754;2023-11-19T10:08:39;94955.56;;;14.78;86.30
19783;BME280;10051;40.294;-3.754;2023-11-19T10:11:09;94913.38;;;14.63;85.29
19783;BME280;10051;40.294;-3.754;2023-11-19T10:13:38;94947.75;;;15.06;84.67
19783;BME280;10051;40.294;-3.754;2023-11-19T10:16:08;94953.03;;;15.06;83.47
19783;BME280;10051;40.294;-3.754;2023-11-19T10:18:34;94917.91;;;14.81;82.69
19783;BME280;10051;40.294;-3.754;2023-11-19T10:21:06;94918.19;;;14.99;82.74
19783;BME280;10051;40.294;-3.754;2023-11-19T10:23:53;94950.44;;;15.20;83.38
19783;BME280;10051;40.294;-3.754;2023-11-19T10:26:20;94941.84;;;15.28;84.00
19783;BME280;10051;40.294;-3.754;2023-11-19T10:28:46;94922.50;;;15.28;82.39
19783;BME280;10051;40.294;-3.754;2023-11-19T10:31:17;94964.13;;;15.60;82.52
19783;BME280;10051;40.294;-3.754;2023-11-19T10:33:43;94918.16;;;15.51;81.63
19783;BME280;10051;40.294;-3.754;2023-11-19T10:36:12;94889.47;;;15.39;80.35
19783;BME280;10051;40.294;-3.754;2023-11-19T10:38:39;94951.53;;;15.85;80.50
19783;BME280;10051;40.294;-3.754;2023-11-19T10:41:05;94951.03;;;15.83;81.44
19783;BME280;10051;40.294;-3.754;2023-11-19T10:43:42;94941.78;;;15.81;81.38
19783;BME280;10051;40.294;-3.754;2023-11-19T10:46:16;94932.44;;;16.02;79.38
19783;BME280;10051;40.294;-3.754;2023-11-19T10:48:46;94892.78;;;15.78;79.52
19783;BME280;10051;40.294;-3.754;2023-11-19T10:51:13;94928.88;;;16.21;79.42
19783;BME280;10051;40.294;-3.754;2023-11-19T10:53:49;94879.38;;;15.88;79.22
19783;BME280;10051;40.294;-3.754;2023-11-19T10:56:16;94930.75;;;16.34;77.81
19783;BME280;10051;40.294;-3.754;2023-11-19T10:58:50;94929.84;;;16.39;78.57
19783;BME280;10051;40.294;-3.754;2023-11-19T11:01:23;94931.72;;;16.53;76.84
19783;BME280;10051;40.294;-3.754;2023-11-19T11:03:54;94908.22;;;16.46;76.67
19783;BME280;10051;40.294;-3.754;2023-11-19T11:06:23;94914.50;;;16.64;76.07
19783;BME280;10051;40.294;-3.754;2023-11-19T11:08:53;94911.91;;;16.73;76.18
19783;BME280;10051;40.294;-3.754;2023-11-19T11:11:20;94906.81;;;16.76;76.75
19783;BME280;10051;40.294;-3.754;2023-11-19T11:13:50;94913.63;;;16.91;74.83
19783;BME280;10051;40.294;-3.754;2023-11-19T11:16:21;94919.09;;;17.09;75.26
19783;BME280;10051;40.294;-3.754;2023-11-19T11:18:48;94906.50;;;17.15;73.89
19783;BME280;10051;40.294;-3.754;2023-11-19T11:21:22;94854.19;;;16.64;74.33
19783;BME280;10051;40.294;-3.754;2023-11-19T11:24:03;94903.75;;;17.06;74.07
19783;BME280;10051;40.294;-3.754;2023-11-19T11:29:20;94879.34;;;17.04;74.44
19783;BME280;10051;40.294;-3.754;2023-11-19T11:34:28;94897.78;;;17.23;74.76
19783;BME280;10051;40.294;-3.754;2023-11-19T11:39:40;94882.00;;;17.49;72.16
19783;BME280;10051;40.294;-3.754;2023-11-19T11:45:03;94831.81;;;17.25;72.96
19783;BME280;10051;40.294;-3.754;2023-11-19T11:50:09;94865.34;;;17.66;72.48
19783;BME280;10051;40.294;-3.754;2023-11-19T11:57:53;94836.09;;;17.66;70.67
19783;BME280;10051;40.294;-3.754;2023-11-19T12:00:39;94847.59;;;17.84;70.90
19783;BME280;10051;40.294;-3.754;2023-11-19T12:03:07;94817.53;;;17.75;70.85
19783;BME280;10051;40.294;-3.754;2023-11-19T12:05:44;94854.56;;;18.03;69.21
19783;BME280;10051;40.294;-3.754;2023-11-19T12:08:12;94851.28;;;18.06;69.19
19783;BME280;10051;40.294;-3.754;2023-11-19T12:10:48;94839.06;;;18.05;69.45
19783;BME280;10051;40.294;-3.754;2023-11-19T12:13:15;94784.03;;;17.74;69.83
19783;BME280;10051;40.294;-3.754;2023-11-19T12:18:30;94834.59;;;18.41;68.49
19783;BME280;10051;40.294;-3.754;2023-11-19T12:21:00;94732.41;;;17.75;67.82
19783;BME280;10051;40.294;-3.754;2023-11-19T12:23:29;94819.88;;;18.26;70.16
19783;BME280;10051;40.294;-3.754;2023-11-19T12:25:56;94782.81;;;17.98;69.81
19783;BME280;10051;40.294;-3.754;2023-11-19T12:28:22;94787.75;;;18.22;68.95
19783;BME280;10051;40.294;-3.754;2023-11-19T12:30:50;94824.88;;;18.54;69.15
19783;BME280;10051;40.294;-3.754;2023-11-19T12:33:16;94757.84;;;18.34;69.22
19783;BME280;10051;40.294;-3.754;2023-11-19T12:35:44;94787.63;;;18.54;66.96
19783;BME280;10051;40.294;-3.754;2023-11-19T12:38:23;94783.72;;;18.51;67.37
19783;BME280;10051;40.294;-3.754;2023-11-19T12:41:09;94722.16;;;18.18;65.37
19783;BME280;10051;40.294;-3.754;2023-11-19T12:43:37;94758.00;;;18.47;66.43
19783;BME280;10051;40.294;-3.754;2023-11-19T12:46:22;94768.81;;;18.59;65.08
19783;BME280;10051;40.294;-3.754;2023-11-19T12:48:49;94748.75;;;18.53;64.07
19783;BME280;10051;40.294;-3.754;2023-11-19T12:51:15;94800.13;;;18.97;64.42
19783;BME280;10051;40.294;-3.754;2023-11-19T12:53:50;94795.25;;;19.08;63.69
19783;BME280;10051;40.294;-3.754;2023-11-19T12:56:20;94776.47;;;18.96;63.22
19783;BME280;10051;40.294;-3.754;2023-11-19T12:58:46;94685.53;;;18.32;62.83
19783;BME280;10051;40.294;-3.754;2023-11-19T13:01:16;94673.59;;;18.38;62.60
19783;BME280;10051;40.294;-3.754;2023-11-19T13:03:43;94751.41;;;18.97;63.27
19783;BME280;10051;40.294;-3.754;2023-11-19T13:06:10;94767.81;;;19.08;63.12
19783;BME280;10051;40.294;-3.754;2023-11-19T13:08:38;94771.25;;;19.17;63.30
19783;BME280;10051;40.294;-3.754;2023-11-19T13:11:04;94709.53;;;18.80;62.95